Snellman, Minnesota
Current Conditions -  °F | °C
As of 5:53 PM on Monday 20 Oct 2014 (Local Time) from KPKD Reporting Station
Clear Clear  
Wind Chill: 58°   Ceiling: Unl
Heat Index: 58°   Visibility: 10mi
Dew Point: 34°   Wind: 6mph
Humidity: 41%   Direction: 10°N
Pressure: 30.02"   Gusts: NA
Location:  46.9347°N, 95.2252°W
Report Text: KPKD 202253Z AUTO 01005KT 10SM CLR 14/01 A3002 RMK AO2 SLP177 T01440011 TSNO
Loading
Personal Weather Stations






























Interactive Weather Map
Tropical Storm Tracking
New forecast layout! Learn more

10-Day Weather Forecast

Advertisements
Track Severe Weather on mobile